Custer, South Dakota
Current Conditions -  °F | °C
As of 2:53 PM on Monday 20 Oct 2014 (Local Time) from KCUT Reporting Station
Clear Clear  
Wind Chill: 70°   Ceiling: Unl
Heat Index: 70°   Visibility: 10mi
Dew Point: 37°   Wind: 8mph
Humidity: 30%   Direction: 220°SW
Pressure: 30.05"   Gusts: NA
Location:  43.77°N, 103.6°W
Report Text: KCUT 202053Z AUTO 22007KT 10SM CLR 21/03 A3005 RMK AO2 SLP134 T02110028 56015
Loading
Personal Weather Stations






























Interactive Weather Map
Tropical Storm Tracking
New forecast layout! Learn more

10-Day Weather Forecast

Advertisements
Track Severe Weather on mobile